Time;durP1;ratioP1;P1;durP2;ratioP2;P2;SDS_P1;SDS_P2;PMS_P1;PMS_P2;Temp;Humidity;BMP_temperature;BMP_pressure;BME280_temperature;BME280_humidity;BME280_pressure;Samples;Min_cycle;Max_cycle;Signal;HPM_P1;HPM_P2
2023/08/24 00:02:19;;;;;;;9.07;5.95;;;;;;;27.06;54.67;99658.78;4356550;32;34084;-77
2023/08/24 00:04:47;;;;;;;8.35;4.75;;;;;;;27.01;54.80;99654.00;4354464;32;35050;-77
2023/08/24 00:07:14;;;;;;;11.18;6.40;;;;;;;27.02;54.81;99650.16;4358737;32;33432;-74
2023/08/24 00:09:43;;;;;;;10.27;7.95;;;;;;;26.99;55.00;99652.53;4358211;32;35042;-78
2023/08/24 00:12:11;;;;;;;10.35;5.70;;;;;;;26.88;55.26;99652.19;4346818;32;34401;-78
2023/08/24 00:14:38;;;;;;;13.98;6.97;;;;;;;26.92;55.33;99644.34;4358702;32;33572;-75
2023/08/24 00:17:06;;;;;;;11.82;5.45;;;;;;;26.94;55.38;99639.47;4357997;32;33566;-78
2023/08/24 00:19:34;;;;;;;9.00;5.60;;;;;;;26.96;55.21;99648.31;4356948;32;32711;-77
2023/08/24 00:22:01;;;;;;;8.70;4.85;;;;;;;26.99;55.09;99649.78;4353546;32;34311;-76
2023/08/24 00:24:29;;;;;;;8.82;5.40;;;;;;;26.97;55.08;99649.16;4358518;32;33974;-77
2023/08/24 00:26:57;;;;;;;9.50;6.37;;;;;;;26.92;54.96;99658.91;4356551;32;34783;-77
2023/08/24 00:29:24;;;;;;;9.32;5.50;;;;;;;26.75;55.47;99656.94;4358699;32;34134;-77
2023/08/24 00:31:52;;;;;;;10.93;5.35;;;;;;;26.69;55.66;99648.53;4350055;32;34246;-77
2023/08/24 00:34:20;;;;;;;10.77;5.85;;;;;;;26.57;56.14;99655.78;4351234;32;34171;-78
2023/08/24 00:36:47;;;;;;;10.80;5.65;;;;;;;26.64;56.03;99647.50;4360189;32;33293;-75
2023/08/24 00:39:16;;;;;;;11.30;6.32;;;;;;;26.62;56.14;99647.75;4360091;32;33666;-77
2023/08/24 00:41:44;;;;;;;13.68;5.22;;;;;;;26.59;56.24;99647.34;4359249;32;34239;-76
2023/08/24 00:44:12;;;;;;;8.48;5.28;;;;;;;26.63;56.16;99654.91;4359499;32;36254;-77
2023/08/24 00:46:41;;;;;;;9.98;6.40;;;;;;;26.63;56.24;99656.81;4359372;32;33925;-78
2023/08/24 00:49:09;;;;;;;8.68;5.50;;;;;;;26.63;56.25;99656.81;4357895;32;33744;-77
2023/08/24 00:51:36;;;;;;;10.30;5.70;;;;;;;26.56;56.50;99656.84;4356242;32;33756;-78
2023/08/24 00:54:04;;;;;;;13.02;5.12;;;;;;;26.47;56.81;99655.41;4345846;32;34298;-78
2023/08/24 00:56:32;;;;;;;9.35;5.30;;;;;;;26.53;56.63;99654.56;4352471;32;34778;-77
2023/08/24 00:59:00;;;;;;;13.40;6.93;;;;;;;26.63;56.40;99668.63;4357522;32;33665;-76
2023/08/24 01:01:27;;;;;;;11.90;6.55;;;;;;;26.62;56.41;99668.88;4355713;32;33711;-74
2023/08/24 01:03:55;;;;;;;11.32;6.15;;;;;;;26.55;56.31;99671.66;4356119;32;33616;-72
2023/08/24 01:06:23;;;;;;;21.35;6.00;;;;;;;26.54;56.31;99664.47;4339439;32;34598;-74
2023/08/24 01:08:50;;;;;;;9.00;6.03;;;;;;;26.61;56.17;99669.91;4358421;32;33433;-75
2023/08/24 01:11:54;;;;;;;8.82;6.60;;;;;;;26.53;56.45;99671.00;4340248;32;34865;-74
2023/08/24 01:14:34;;;;;;;11.00;5.53;;;;;;;26.59;56.23;99661.91;4313792;33;34273;-74
2023/08/24 01:17:04;;;;;;;9.27;5.32;;;;;;;26.45;56.54;99654.75;4301002;33;33436;-76
2023/08/24 01:19:41;;;;;;;9.70;5.57;;;;;;;26.56;56.20;99659.59;4303311;33;34194;-74
2023/08/24 01:22:33;;;;;;;8.73;6.45;;;;;;;26.59;56.18;99656.41;4312557;33;34278;-74
2023/08/24 01:25:37;;;;;;;11.60;5.90;;;;;;;26.61;56.23;99654.31;4293785;33;34068;-72
2023/08/24 01:28:05;;;;;;;8.43;5.03;;;;;;;26.58;56.25;99648.38;4292878;33;34424;-72
2023/08/24 01:30:35;;;;;;;8.75;5.57;;;;;;;26.60;56.12;99649.84;4298150;33;33866;-72
2023/08/24 01:33:05;;;;;;;9.57;5.40;;;;;;;26.62;55.97;99655.97;4298019;33;33825;-72
2023/08/24 01:35:33;;;;;;;8.75;5.60;;;;;;;26.52;56.02;99660.25;4300628;33;34089;-71
2023/08/24 01:38:02;;;;;;;8.68;5.15;;;;;;;26.42;56.15;99650.59;4295396;33;33402;-71
2023/08/24 01:40:45;;;;;;;10.18;5.70;;;;;;;26.52;55.65;99654.75;4285786;33;34812;-71
2023/08/24 01:43:14;;;;;;;7.72;5.35;;;;;;;26.42;55.96;99650.59;4298424;33;34032;-77
2023/08/24 01:45:46;;;;;;;7.47;4.45;;;;;;;26.43;55.86;99656.91;4288058;33;33658;-77
2023/08/24 01:48:14;;;;;;;12.45;6.05;;;;;;;26.35;56.21;99655.25;4298409;33;33466;-72
2023/08/24 01:50:42;;;;;;;8.93;6.07;;;;;;;26.37;56.21;99655.88;4298206;33;34886;-73
2023/08/24 01:53:10;;;;;;;9.50;7.10;;;;;;;26.33;56.46;99651.06;4297638;33;33969;-77
2023/08/24 01:55:39;;;;;;;8.23;6.37;;;;;;;26.30;56.58;99655.06;4286042;33;34812;-71
2023/08/24 01:58:08;;;;;;;12.55;7.65;;;;;;;26.12;57.16;99647.56;4293717;33;33592;-71
2023/08/24 02:00:35;;;;;;;8.25;5.45;;;;;;;26.07;57.44;99652.88;4296497;33;33669;-72
2023/08/24 02:03:04;;;;;;;7.95;5.00;;;;;;;26.05;57.58;99654.16;4331857;33;33822;-71
2023/08/24 02:05:31;;;;;;;8.63;5.82;;;;;;;26.10;57.46;99657.06;4338410;32;34055;-73
2023/08/24 02:07:59;;;;;;;8.65;5.35;;;;;;;26.24;57.12;99655.94;4330550;32;33346;-76
2023/08/24 02:10:27;;;;;;;15.48;5.60;;;;;;;26.25;57.00;99649.41;4333494;32;34530;-76
2023/08/24 02:12:55;;;;;;;9.90;4.53;;;;;;;26.20;57.00;99649.22;4332694;32;33384;-77
2023/08/24 02:15:22;;;;;;;10.65;7.93;;;;;;;26.27;56.62;99640.97;4335221;32;33964;-77
2023/08/24 02:17:51;;;;;;;10.30;4.82;;;;;;;26.25;56.74;99646.66;4351631;32;33377;-77
2023/08/24 02:20:19;;;;;;;8.18;5.12;;;;;;;26.24;56.83;99645.81;4352081;32;34633;-76
2023/08/24 02:22:46;;;;;;;13.80;5.15;;;;;;;26.18;57.15;99637.63;4352224;32;33466;-75
2023/08/24 02:25:14;;;;;;;8.93;5.05;;;;;;;26.23;57.03;99638.66;4354511;32;33647;-76
2023/08/24 02:27:42;;;;;;;8.50;4.68;;;;;;;26.30;56.92;99641.38;4354246;32;33560;-75
2023/08/24 02:30:10;;;;;;;8.18;5.28;;;;;;;26.32;56.89;99639.22;4353992;32;34725;-75
2023/08/24 02:32:38;;;;;;;7.87;4.87;;;;;;;26.24;57.21;99637.59;4355192;32;34037;-75
2023/08/24 02:35:06;;;;;;;8.27;4.65;;;;;;;26.26;57.24;99645.63;4352178;32;34593;-75
2023/08/24 02:37:34;;;;;;;9.60;5.35;;;;;;;26.35;56.99;99640.69;4359867;32;33476;-75
2023/08/24 02:40:02;;;;;;;11.73;6.43;;;;;;;26.35;57.00;99640.69;4361050;32;33766;-74
2023/08/24 02:42:31;;;;;;;10.95;5.80;;;;;;;26.34;56.99;99642.59;4359421;32;34702;-75
2023/08/24 02:44:59;;;;;;;11.45;5.93;;;;;;;26.41;56.91;99637.06;4351714;32;35262;-75
2023/08/24 02:47:27;;;;;;;8.38;5.30;;;;;;;26.44;56.71;99642.13;4354288;32;33884;-75
2023/08/24 02:49:54;;;;;;;8.10;5.53;;;;;;;26.52;56.42;99643.78;4358201;32;33412;-75
2023/08/24 02:52:22;;;;;;;8.43;5.20;;;;;;;26.51;56.45;99642.94;4359430;32;34035;-72
2023/08/24 02:54:50;;;;;;;8.73;5.70;;;;;;;26.58;56.22;99648.38;4358752;32;34212;-72
2023/08/24 02:57:17;;;;;;;7.35;4.78;;;;;;;26.50;56.47;99644.00;4358547;32;33700;-72
2023/08/24 02:59:45;;;;;;;8.38;5.60;;;;;;;26.55;56.28;99646.09;4347045;32;34919;-72
2023/08/24 03:02:13;;;;;;;8.48;6.25;;;;;;;26.42;56.65;99644.22;4354442;32;35030;-72
2023/08/24 03:04:40;;;;;;;11.15;6.22;;;;;;;26.51;56.40;99644.84;4354890;32;33823;-72
2023/08/24 03:07:10;;;;;;;10.38;7.57;;;;;;;26.51;56.45;99647.59;4359499;32;33582;-72
2023/08/24 03:09:38;;;;;;;8.85;5.68;;;;;;;26.42;56.63;99638.75;4357539;32;33315;-72
2023/08/24 03:12:06;;;;;;;10.38;6.12;;;;;;;26.54;56.33;99638.91;4356349;32;33828;-71
2023/08/24 03:14:33;;;;;;;10.20;5.75;;;;;;;26.53;56.32;99643.56;4363163;32;34793;-72
2023/08/24 03:17:01;;;;;;;11.68;6.07;;;;;;;26.57;56.19;99639.31;4358518;32;33219;-73
2023/08/24 03:19:30;;;;;;;9.98;6.05;;;;;;;26.54;56.25;99638.91;4353725;32;33711;-72
2023/08/24 03:21:58;;;;;;;10.52;6.43;;;;;;;26.48;56.37;99641.50;4357995;32;33758;-72
2023/08/24 03:24:25;;;;;;;8.60;4.97;;;;;;;26.48;56.49;99640.63;4356949;32;33608;-72
2023/08/24 03:26:53;;;;;;;12.93;5.43;;;;;;;26.49;56.38;99642.34;4358100;32;33633;-72
2023/08/24 03:29:21;;;;;;;7.43;5.25;;;;;;;26.49;56.30;99650.56;4357994;32;34847;-72
2023/08/24 03:31:49;;;;;;;8.48;5.05;;;;;;;26.42;56.37;99646.97;4366077;32;33867;-72
2023/08/24 03:34:16;;;;;;;8.75;5.35;;;;;;;26.30;56.89;99643.28;4355310;32;33755;-72
2023/08/24 03:36:44;;;;;;;10.27;5.40;;;;;;;26.33;56.71;99640.94;4357016;32;33360;-72
2023/08/24 03:39:12;;;;;;;10.02;5.15;;;;;;;26.35;56.62;99640.69;4360028;32;34826;-72
2023/08/24 03:41:39;;;;;;;15.40;6.40;;;;;;;26.38;56.47;99646.56;4366468;32;35286;-72
2023/08/24 03:44:07;;;;;;;8.38;4.82;;;;;;;26.40;56.47;99644.47;4357668;32;35211;-72
2023/08/24 03:46:35;;;;;;;8.93;4.95;;;;;;;26.38;56.51;99653.97;4355339;32;33317;-72
2023/08/24 03:49:02;;;;;;;9.00;4.90;;;;;;;26.34;56.65;99655.47;4350021;32;34692;-72
2023/08/24 03:51:30;;;;;;;10.63;6.72;;;;;;;26.36;56.62;99650.63;4357359;32;32277;-72
2023/08/24 03:53:58;;;;;;;9.10;4.78;;;;;;;26.33;56.73;99653.81;4353496;32;34780;-72
2023/08/24 03:56:26;;;;;;;9.98;5.32;;;;;;;26.38;56.69;99653.97;4359238;32;33394;-72
2023/08/24 03:58:54;;;;;;;8.52;4.60;;;;;;;26.36;56.73;99656.94;4351237;32;33936;-72
2023/08/24 04:01:22;;;;;;;9.32;5.90;;;;;;;26.38;56.67;99654.81;4353559;32;33819;-72
2023/08/24 04:03:51;;;;;;;11.00;7.12;;;;;;;26.37;56.64;99649.56;4356761;32;34820;-72
2023/08/24 04:06:21;;;;;;;9.98;6.03;;;;;;;26.34;56.71;99653.56;4358683;32;33232;-71
2023/08/24 04:08:49;;;;;;;11.68;5.90;;;;;;;26.05;57.64;99660.47;4356066;32;34024;-72
2023/08/24 04:11:17;;;;;;;12.35;5.90;;;;;;;26.22;57.25;99652.56;4354900;32;35031;-72
2023/08/24 04:13:46;;;;;;;11.52;6.40;;;;;;;26.23;57.27;99655.12;4361170;32;33837;-72
2023/08/24 04:16:14;;;;;;;8.40;5.32;;;;;;;26.13;57.38;99657.50;4354561;32;33668;-78
2023/08/24 04:18:42;;;;;;;8.55;5.18;;;;;;;26.22;57.27;99656.16;4351262;32;32482;-79
2023/08/24 04:21:09;;;;;;;8.73;4.85;;;;;;;26.29;56.98;99660.78;4359525;32;34748;-77
2023/08/24 04:23:37;;;;;;;7.78;4.75;;;;;;;26.17;57.34;99652.41;4360585;32;33894;-74
2023/08/24 04:26:06;;;;;;;8.55;4.93;;;;;;;26.18;57.24;99651.34;4354986;32;34575;-75
2023/08/24 04:28:34;;;;;;;9.98;5.62;;;;;;;26.14;57.40;99658.31;4352834;32;34879;-74
2023/08/24 04:31:01;;;;;;;8.48;5.95;;;;;;;26.19;57.26;99653.00;4360272;32;33823;-72
2023/08/24 04:33:29;;;;;;;10.55;6.47;;;;;;;26.23;57.24;99663.34;4361349;32;33985;-72
2023/08/24 04:35:58;;;;;;;9.60;5.97;;;;;;;26.18;57.46;99665.87;4359113;32;33232;-74
2023/08/24 04:38:26;;;;;;;9.13;6.03;;;;;;;26.31;57.29;99655.91;4361274;32;34025;-73
2023/08/24 04:40:55;;;;;;;9.70;6.25;;;;;;;26.44;57.01;99656.66;4354448;32;35344;-75
2023/08/24 04:43:24;;;;;;;9.35;6.12;;;;;;;26.47;56.88;99655.41;4358797;32;34077;-75
2023/08/24 04:45:54;;;;;;;10.13;6.72;;;;;;;26.52;56.84;99655.63;4359916;32;34493;-74
2023/08/24 04:48:23;;;;;;;10.60;5.57;;;;;;;26.61;56.54;99665.28;4360440;32;35344;-74
2023/08/24 04:50:50;;;;;;;9.00;5.30;;;;;;;26.61;56.51;99664.41;4362119;32;33643;-75
2023/08/24 04:53:19;;;;;;;30.50;6.43;;;;;;;26.56;56.56;99667.84;4359186;32;35121;-75
2023/08/24 04:55:47;;;;;;;9.77;4.57;;;;;;;26.58;56.54;99667.59;4347749;32;33203;-75
2023/08/24 04:58:14;;;;;;;8.95;5.68;;;;;;;26.61;56.36;99670.78;4355626;32;33670;-75
2023/08/24 05:00:42;;;;;;;8.20;5.43;;;;;;;26.55;56.58;99674.41;4356822;32;34882;-74
2023/08/24 05:03:10;;;;;;;8.25;5.25;;;;;;;26.67;56.12;99672.59;4356207;32;34004;-74
2023/08/24 05:05:38;;;;;;;10.93;5.43;;;;;;;26.70;56.22;99674.91;4360454;32;34399;-74
2023/08/24 05:08:06;;;;;;;8.60;5.60;;;;;;;26.85;55.89;99682.00;4361287;32;34520;-75
2023/08/24 05:10:35;;;;;;;8.30;4.87;;;;;;;26.91;55.82;99681.94;4358648;32;33781;-75
2023/08/24 05:13:03;;;;;;;10.02;5.30;;;;;;;26.86;55.87;99691.91;4359613;32;34231;-74
2023/08/24 05:15:31;;;;;;;10.73;6.57;;;;;;;26.98;55.43;99681.91;4356589;32;34569;-70
2023/08/24 05:17:59;;;;;;;8.68;5.22;;;;;;;27.16;55.19;99687.50;4353777;32;34754;-71
2023/08/24 05:20:28;;;;;;;13.60;7.53;;;;;;;27.36;54.58;99686.47;4356172;32;34144;-72
2023/08/24 05:22:55;;;;;;;8.45;5.22;;;;;;;27.56;54.35;99689.03;4359496;32;33715;-72
2023/08/24 05:25:23;;;;;;;11.55;6.70;;;;;;;27.71;53.97;99686.75;4357276;32;34632;-72
2023/08/24 05:27:51;;;;;;;16.42;6.85;;;;;;;27.96;53.34;99688.63;4350897;32;33850;-72
2023/08/24 05:30:19;;;;;;;11.75;7.07;;;;;;;28.22;52.58;99690.19;4360714;32;33842;-72
2023/08/24 05:32:47;;;;;;;14.68;6.30;;;;;;;28.28;52.50;99692.03;4356293;32;34056;-72
2023/08/24 05:35:15;;;;;;;8.63;5.65;;;;;;;28.36;52.44;99699.97;4355317;32;33515;-72
2023/08/24 05:37:43;;;;;;;8.85;5.12;;;;;;;28.72;51.70;99693.56;4354048;32;34342;-72
2023/08/24 05:40:11;;;;;;;9.20;5.80;;;;;;;29.23;50.21;99696.81;4355185;32;33647;-72
2023/08/24 05:42:38;;;;;;;11.52;7.25;;;;;;;30.13;47.89;99692.84;4358534;32;33848;-72
2023/08/24 05:45:06;;;;;;;10.93;6.65;;;;;;;31.04;45.78;99695.72;4353724;32;33654;-72
2023/08/24 05:47:34;;;;;;;12.15;6.87;;;;;;;31.77;43.81;99694.69;4358034;32;33831;-72
2023/08/24 05:50:02;;;;;;;11.35;8.10;;;;;;;32.48;42.46;99688.44;4359171;32;35320;-72
2023/08/24 05:52:29;;;;;;;12.27;7.20;;;;;;;32.56;42.31;99687.16;4355925;32;33797;-72
2023/08/24 05:54:57;;;;;;;12.55;6.68;;;;;;;32.12;43.42;99693.53;4360594;32;33144;-72
2023/08/24 05:57:25;;;;;;;10.18;7.32;;;;;;;31.75;44.42;99688.59;4355426;32;33632;-72
2023/08/24 05:59:52;;;;;;;9.93;7.78;;;;;;;31.54;44.93;99698.50;4352339;32;34050;-72
2023/08/24 06:02:20;;;;;;;12.18;7.28;;;;;;;31.22;45.54;99700.19;4354591;32;34487;-72
2023/08/24 06:04:50;;;;;;;10.48;7.70;;;;;;;31.04;45.79;99696.59;4357940;32;33157;-72
2023/08/24 06:07:18;;;;;;;9.45;6.40;;;;;;;30.86;46.21;99700.41;4357132;32;34744;-72
2023/08/24 06:09:45;;;;;;;11.00;7.37;;;;;;;30.74;46.69;99704.28;4354971;32;33688;-72
2023/08/24 06:12:13;;;;;;;15.85;8.52;;;;;;;30.61;46.86;99699.91;4357695;32;33558;-72
2023/08/24 06:14:41;;;;;;;10.88;6.45;;;;;;;30.56;47.34;99699.78;4360352;32;33945;-72
2023/08/24 06:17:08;;;;;;;9.90;5.55;;;;;;;30.26;47.91;99706.38;4354408;32;33482;-72
2023/08/24 06:19:36;;;;;;;9.02;5.68;;;;;;;30.23;48.16;99701.34;4350773;32;34790;-72
2023/08/24 06:22:04;;;;;;;8.88;6.05;;;;;;;30.15;48.56;99698.97;4354968;32;34614;-72
2023/08/24 06:24:32;;;;;;;9.80;7.45;;;;;;;30.13;48.62;99703.87;4356583;32;33697;-72
2023/08/24 06:27:00;;;;;;;8.63;6.45;;;;;;;29.67;49.88;99702.88;4357603;32;33725;-72
2023/08/24 06:29:28;;;;;;;8.77;6.15;;;;;;;29.90;49.07;99713.88;4348731;32;34522;-72
2023/08/24 06:31:56;;;;;;;9.13;5.75;;;;;;;29.91;48.42;99710.03;4351733;32;35686;-72
2023/08/24 06:34:24;;;;;;;11.18;6.15;;;;;;;29.85;48.98;99707.41;4356702;32;34823;-72
2023/08/24 06:36:53;;;;;;;9.38;5.93;;;;;;;29.75;49.20;99709.94;4359883;32;34743;-72
2023/08/24 06:39:20;;;;;;;9.43;6.57;;;;;;;29.82;48.70;99713.41;4353372;32;33763;-72
2023/08/24 06:41:48;;;;;;;9.73;5.97;;;;;;;29.85;48.35;99713.75;4356827;32;34138;-72
2023/08/24 06:44:18;;;;;;;8.52;6.15;;;;;;;29.85;48.51;99713.75;4358575;32;31827;-72
2023/08/24 06:46:46;;;;;;;9.93;6.95;;;;;;;29.97;48.16;99707.38;4359651;32;33889;-72
2023/08/24 06:49:14;;;;;;;10.25;6.50;;;;;;;30.03;48.45;99714.69;4346007;32;34014;-72
2023/08/24 06:51:41;;;;;;;12.65;8.07;;;;;;;30.13;48.27;99699.19;4357286;32;34914;-71
2023/08/24 06:54:09;;;;;;;9.32;6.45;;;;;;;30.12;48.37;99713.25;4353307;32;35207;-72
2023/08/24 06:56:37;;;;;;;9.35;7.55;;;;;;;30.19;47.20;99705.69;4354874;32;33846;-72
2023/08/24 06:59:05;;;;;;;9.30;6.35;;;;;;;30.06;47.50;99703.19;4357272;32;33749;-72
2023/08/24 07:01:33;;;;;;;11.12;6.53;;;;;;;30.16;47.35;99703.37;4335112;32;34471;-72
2023/08/24 07:04:01;;;;;;;7.80;5.53;;;;;;;30.10;47.69;99707.12;4337837;32;34591;-72
2023/08/24 07:06:28;;;;;;;8.38;5.80;;;;;;;30.19;47.53;99708.44;4338303;32;34627;-72
2023/08/24 07:08:56;;;;;;;9.25;6.00;;;;;;;30.20;47.01;99703.75;4341498;32;35412;-72
2023/08/24 07:11:24;;;;;;;9.82;5.80;;;;;;;30.21;46.32;99706.28;4335366;32;34104;-73
2023/08/24 07:13:53;;;;;;;10.45;5.60;;;;;;;30.23;46.69;99706.03;4341479;32;34611;-72
2023/08/24 07:16:21;;;;;;;8.80;5.37;;;;;;;30.27;47.20;99704.47;4339153;32;33816;-73
2023/08/24 07:18:49;;;;;;;9.43;5.05;;;;;;;30.31;46.82;99709.25;4338250;32;34100;-73
2023/08/24 07:21:17;;;;;;;8.88;5.12;;;;;;;30.12;46.82;99714.06;4329267;33;33797;-73
2023/08/24 07:23:45;;;;;;;8.38;6.50;;;;;;;30.02;46.74;99715.78;4338963;32;34133;-73
2023/08/24 07:26:12;;;;;;;9.30;6.07;;;;;;;30.28;47.15;99707.00;4341780;33;33377;-71
2023/08/24 07:28:40;;;;;;;9.68;6.70;;;;;;;30.28;46.23;99708.91;4341613;32;33760;-71
2023/08/24 07:31:10;;;;;;;10.40;5.68;;;;;;;30.30;45.92;99704.81;4340850;33;34931;-71
2023/08/24 07:33:38;;;;;;;8.65;5.95;;;;;;;30.43;46.01;99703.69;4349839;32;33809;-71
2023/08/24 07:36:06;;;;;;;8.43;6.50;;;;;;;30.56;45.25;99706.19;4355848;32;34227;-70
2023/08/24 07:38:34;;;;;;;7.72;4.95;;;;;;;30.51;45.24;99711.59;4348546;32;33880;-71
2023/08/24 07:41:03;;;;;;;10.63;5.82;;;;;;;30.60;45.50;99712.03;4356877;32;34003;-70
2023/08/24 07:43:30;;;;;;;9.27;6.90;;;;;;;30.67;44.92;99709.13;4358484;32;33218;-71
2023/08/24 07:45:59;;;;;;;15.23;6.15;;;;;;;30.56;45.43;99708.94;4351407;32;33789;-71
2023/08/24 07:48:27;;;;;;;10.25;5.62;;;;;;;30.75;44.99;99711.47;4358687;32;34219;-70
2023/08/24 07:50:54;;;;;;;9.40;6.05;;;;;;;30.75;44.26;99712.31;4359187;32;33919;-70
2023/08/24 07:53:22;;;;;;;10.07;6.60;;;;;;;30.67;44.92;99714.66;4348911;32;34105;-70
2023/08/24 07:55:50;;;;;;;8.52;6.30;;;;;;;30.58;45.22;99703.16;4357670;32;34929;-71
2023/08/24 07:58:17;;;;;;;11.52;6.97;;;;;;;30.70;44.74;99716.91;4355489;32;34898;-70
2023/08/24 08:00:45;;;;;;;11.12;6.82;;;;;;;30.74;44.22;99718.09;4346959;32;33653;-71
2023/08/24 08:03:13;;;;;;;10.57;7.32;;;;;;;30.48;46.00;99717.59;4348821;32;33326;-74
2023/08/24 08:05:40;;;;;;;9.77;6.07;;;;;;;30.91;45.15;99716.22;4358031;32;33468;-74
2023/08/24 08:08:08;;;;;;;8.32;5.97;;;;;;;30.92;45.42;99712.37;4359067;32;35483;-75
2023/08/24 08:10:36;;;;;;;11.50;7.65;;;;;;;30.51;46.45;99717.09;4356301;32;33844;-73
2023/08/24 08:13:03;;;;;;;11.35;6.20;;;;;;;30.76;45.45;99714.00;4358410;32;34308;-71
2023/08/24 08:15:31;;;;;;;12.57;6.50;;;;;;;30.42;46.96;99709.47;4356599;32;33762;-71
2023/08/24 08:17:59;;;;;;;11.48;6.62;;;;;;;30.53;46.10;99722.38;4353474;32;36266;-71
2023/08/24 08:20:27;;;;;;;10.77;6.75;;;;;;;30.46;45.71;99718.91;4354172;32;33691;-71
2023/08/24 08:22:54;;;;;;;10.63;6.87;;;;;;;30.62;44.13;99726.41;4359531;32;33342;-72
2023/08/24 08:25:22;;;;;;;9.20;6.22;;;;;;;30.24;45.20;99725.13;4350081;32;33854;-72
2023/08/24 08:27:50;;;;;;;10.40;5.85;;;;;;;30.26;45.07;99722.94;4353055;32;32804;-73
2023/08/24 08:30:20;;;;;;;8.02;6.07;;;;;;;30.29;44.00;99732.66;4352705;32;34269;-73
2023/08/24 08:32:48;;;;;;;10.40;6.78;;;;;;;30.13;45.53;99732.31;4351404;32;34794;-71
2023/08/24 08:35:17;;;;;;;8.23;5.70;;;;;;;30.20;45.17;99726.69;4351250;32;33690;-71
2023/08/24 08:37:46;;;;;;;7.07;5.37;;;;;;;30.59;44.29;99724.16;4351789;32;34162;-70
2023/08/24 08:40:14;;;;;;;11.35;6.03;;;;;;;30.27;44.16;99727.37;4351918;32;34050;-71
2023/08/24 08:42:41;;;;;;;7.25;5.50;;;;;;;30.43;43.56;99719.41;4352890;32;34437;-71
2023/08/24 08:45:10;;;;;;;8.20;5.12;;;;;;;30.79;42.52;99727.34;4354993;32;33553;-75
2023/08/24 08:47:38;;;;;;;8.75;5.97;;;;;;;30.81;40.86;99719.63;4355532;32;34375;-73
2023/08/24 08:50:06;;;;;;;8.48;5.25;;;;;;;30.80;41.74;99717.97;4355000;32;35223;-73
2023/08/24 08:52:34;;;;;;;8.45;5.50;;;;;;;30.96;41.03;99712.72;4327954;33;33571;-74
2023/08/24 08:55:06;;;;;;;8.52;4.43;;;;;;;30.83;40.63;99706.44;4327401;33;33280;-75
2023/08/24 08:57:34;;;;;;;10.93;6.43;;;;;;;30.83;41.30;99709.19;4321527;33;35177;-76
2023/08/24 09:00:02;;;;;;;9.40;5.75;;;;;;;30.79;41.25;99712.72;4328910;33;33827;-73
2023/08/24 09:02:31;;;;;;;7.93;4.50;;;;;;;31.12;40.51;99700.00;4324160;33;33531;-73
2023/08/24 09:04:59;;;;;;;9.25;5.30;;;;;;;31.01;41.24;99705.38;4331189;32;33580;-72
2023/08/24 09:07:27;;;;;;;8.48;4.82;;;;;;;30.81;42.45;99714.09;4326815;33;33769;-73
2023/08/24 09:09:55;;;;;;;9.00;6.00;;;;;;;30.96;40.70;99707.19;4329274;32;31809;-72
2023/08/24 09:12:23;;;;;;;8.40;5.25;;;;;;;31.13;40.17;99702.50;4337572;33;33368;-71
2023/08/24 09:14:50;;;;;;;8.80;5.32;;;;;;;31.30;40.44;99700.59;4328792;33;33674;-71
2023/08/24 09:17:21;;;;;;;7.95;5.53;;;;;;;31.44;40.04;99697.53;4326683;33;34112;-71
2023/08/24 09:19:51;;;;;;;8.43;5.25;;;;;;;30.89;39.85;99696.31;4328895;33;34135;-71
2023/08/24 09:22:19;;;;;;;7.97;4.78;;;;;;;30.69;39.64;99701.41;4327312;32;33518;-71
2023/08/24 09:24:50;;;;;;;8.35;5.55;;;;;;;30.98;40.04;99694.81;4355193;32;34079;-71
2023/08/24 09:27:19;;;;;;;7.60;4.45;;;;;;;31.18;40.07;99696.25;4360682;32;34571;-69
2023/08/24 09:29:50;;;;;;;10.07;5.07;;;;;;;31.03;40.24;99692.12;4360751;32;35243;-70
2023/08/24 09:32:28;;;;;;;8.55;5.10;;;;;;;31.39;38.74;99689.97;4357342;32;33570;-70
2023/08/24 09:34:56;;;;;;;7.03;4.93;;;;;;;31.65;37.84;99688.41;4358263;32;33722;-71
2023/08/24 09:37:24;;;;;;;8.10;4.62;;;;;;;31.64;38.55;99684.00;4346574;32;35821;-70
2023/08/24 09:40:01;;;;;;;8.27;4.97;;;;;;;31.88;37.39;99687.41;4359609;32;35166;-70
2023/08/24 09:42:29;;;;;;;8.02;5.45;;;;;;;32.07;37.48;99684.31;4351724;32;33490;-70
2023/08/24 09:45:04;;;;;;;6.32;4.62;;;;;;;31.94;37.57;99685.53;4352646;32;34532;-72
2023/08/24 09:47:32;;;;;;;7.05;4.85;;;;;;;31.99;38.13;99678.12;4353700;32;34913;-74
2023/08/24 09:50:00;;;;;;;8.75;5.12;;;;;;;32.42;37.16;99681.97;4354222;32;33965;-73
2023/08/24 09:52:31;;;;;;;7.70;4.00;;;;;;;32.09;36.85;99682.13;4338793;32;32376;-72
2023/08/24 09:55:04;;;;;;;11.52;5.15;;;;;;;32.49;35.02;99681.81;4353552;32;33535;-75
2023/08/24 09:57:38;;;;;;;7.82;4.62;;;;;;;32.12;35.45;99685.22;4353059;32;33785;-73
2023/08/24 10:00:11;;;;;;;7.53;4.50;;;;;;;32.50;35.13;99677.94;4351048;32;34571;-73
2023/08/24 10:02:50;;;;;;;7.07;4.70;;;;;;;32.73;34.73;99678.75;4354437;32;33172;-72
2023/08/24 10:05:23;;;;;;;6.35;4.37;;;;;;;32.89;33.55;99681.37;4351566;32;34044;-72
2023/08/24 10:08:11;;;;;;;7.10;3.97;;;;;;;32.93;33.28;99676.16;4353842;32;35254;-71
2023/08/24 10:10:39;;;;;;;7.45;4.40;;;;;;;32.42;33.21;99681.97;4338993;32;33803;-70
2023/08/24 10:13:18;;;;;;;6.40;4.03;;;;;;;33.05;32.70;99682.38;4340190;32;33505;-71
2023/08/24 10:15:47;;;;;;;8.63;4.20;;;;;;;32.97;32.32;99670.94;4351819;32;33474;-70
2023/08/24 10:18:16;;;;;;;8.45;4.25;;;;;;;33.28;31.74;99678.41;4352320;32;33799;-70
2023/08/24 10:20:45;;;;;;;8.05;4.22;;;;;;;33.07;31.77;99679.38;4354069;32;35058;-74
2023/08/24 10:23:15;;;;;;;7.03;4.47;;;;;;;33.19;32.75;99680.00;4350576;32;33466;-74
2023/08/24 10:25:44;;;;;;;9.90;4.68;;;;;;;33.56;32.75;99673.66;4352533;32;33845;-74
2023/08/24 10:28:13;;;;;;;6.82;4.90;;;;;;;33.19;32.51;99668.06;4354258;32;33828;-73
2023/08/24 10:30:44;;;;;;;9.13;4.40;;;;;;;33.08;32.98;99668.00;4347329;32;33924;-72
2023/08/24 10:33:13;;;;;;;8.95;4.45;;;;;;;33.74;31.52;99669.59;4338237;32;33557;-73
2023/08/24 10:35:41;;;;;;;7.90;4.37;;;;;;;33.53;32.22;99661.16;4354854;32;34042;-73
2023/08/24 10:38:23;;;;;;;7.78;4.68;;;;;;;33.50;31.45;99663.63;4358134;32;33766;-73
2023/08/24 10:40:51;;;;;;;7.10;4.70;;;;;;;33.37;31.95;99651.84;4358130;32;35333;-74
2023/08/24 10:43:19;;;;;;;6.95;4.40;;;;;;;33.69;31.21;99650.16;4360288;32;33525;-72
2023/08/24 10:46:00;;;;;;;8.48;4.50;;;;;;;34.11;31.15;99652.03;4354508;32;34475;-71
2023/08/24 10:48:49;;;;;;;6.97;4.85;;;;;;;33.89;30.65;99649.41;4349973;32;33497;-72
2023/08/24 10:51:21;;;;;;;9.27;5.10;;;;;;;33.66;31.43;99648.72;4310546;33;35628;-74
2023/08/24 10:53:52;;;;;;;7.10;4.53;;;;;;;34.22;30.64;99640.69;4312214;33;33628;-75
2023/08/24 10:56:20;;;;;;;7.30;4.72;;;;;;;34.33;31.09;99640.72;4311404;33;33870;-74
2023/08/24 10:59:11;;;;;;;7.55;4.78;;;;;;;34.06;30.94;99639.81;4310328;33;33926;-75
2023/08/24 11:01:51;;;;;;;10.38;5.30;;;;;;;34.05;32.15;99646.44;4311831;33;33633;-72
2023/08/24 11:04:19;;;;;;;9.75;4.62;;;;;;;34.22;31.05;99637.06;4311378;33;34426;-72
2023/08/24 11:06:58;;;;;;;7.37;4.70;;;;;;;34.34;29.88;99639.59;4310708;33;34091;-71
2023/08/24 11:09:44;;;;;;;10.48;4.47;;;;;;;34.49;30.68;99646.03;4311502;33;35377;-72
2023/08/24 11:12:12;;;;;;;7.80;4.53;;;;;;;34.77;30.24;99641.09;4311883;33;33449;-75
2023/08/24 11:14:58;;;;;;;9.90;5.00;;;;;;;34.12;30.99;99646.19;4311086;33;33190;-75
2023/08/24 11:17:32;;;;;;;6.35;4.72;;;;;;;34.70;30.77;99641.34;4309834;33;32875;-75
2023/08/24 11:20:00;;;;;;;9.77;5.03;;;;;;;34.70;30.15;99641.34;4314356;33;35294;-74
2023/08/24 11:22:32;;;;;;;13.07;5.75;;;;;;;34.19;30.81;99637.59;4309238;33;34017;-74
2023/08/24 11:25:00;;;;;;;7.25;5.10;;;;;;;34.53;30.24;99638.84;4313712;33;34445;-74
2023/08/24 11:27:28;;;;;;;22.75;6.57;;;;;;;34.90;30.02;99643.34;4300528;32;34228;-72
2023/08/24 11:30:00;;;;;;;7.95;5.20;;;;;;;34.28;30.71;99636.78;4359600;32;33869;-71
2023/08/24 11:32:28;;;;;;;11.35;5.25;;;;;;;34.59;30.34;99634.13;4351287;32;34078;-72
2023/08/24 11:34:55;;;;;;;9.95;5.30;;;;;;;34.51;31.55;99638.25;4355041;32;33302;-72
2023/08/24 11:37:23;;;;;;;6.90;4.95;;;;;;;34.84;30.99;99630.53;4321974;33;33618;-73
2023/08/24 11:39:51;;;;;;;7.18;4.72;;;;;;;34.64;30.73;99625.81;4323907;32;33904;-74
2023/08/24 11:42:18;;;;;;;8.57;5.43;;;;;;;34.75;30.63;99621.91;4316467;33;33613;-74